GCGM/GMZ METAR and TAF weather

Enter ICAO airport designator
Station Type Date Time Source
GCGM METAR 2019/12/06 04:00 UTC NOAA

GCGM 060400Z AUTO VRB04KT 9999 OVC038 17/10 Q1016 RMK R09/VRB03KT ARP/VRB01KT


Station Type Date Time Source
GCGM Decoded METAR 2019/12/06 04:00 UTC NOAA

Station name not available
Dec 05, 2019 - 11:00 PM EST / 2019.12.06 0400 UTC
Wind: Variable at 5 MPH (4 KT):0
Visibility: greater than 7 mile(s):0
Sky conditions: overcast
Temperature: 62 F (17 C)
Dew Point: 50 F (10 C)
Relative Humidity: 63%
Pressure (altimeter): 30.00 in. Hg (1016 hPa)
ob: GCGM 060400Z AUTO VRB04KT 9999 OVC038 17/10 Q1016 RMK R09/VRB03KT ARP/VRB01KT
cycle: 4

Station Type Date Time Source
GCGM TAF 2019/12/06 03:00 UTC NOAA

TAF GCGM 060200Z 0603/0703 03015KT 9999 SCT045 TX22/0615Z TN17/0606Z
TEMPO 0603/0703 VRB05G25KT PROB30
TEMPO 0603/0624 02015G27KT

Example: see airport list